sensor_id;sensor_type;location;lat;lon;timestamp;temperature;humidity
30280;DHT22;17097;50.916;5.344;2023-05-10T00:01:40;15.40;99.90
30280;DHT22;17097;50.916;5.344;2023-05-10T00:04:06;15.40;99.90
30280;DHT22;17097;50.916;5.344;2023-05-10T00:06:32;15.40;99.90
30280;DHT22;17097;50.916;5.344;2023-05-10T00:08:57;15.30;99.90
30280;DHT22;17097;50.916;5.344;2023-05-10T00:11:23;15.40;99.90
30280;DHT22;17097;50.916;5.344;2023-05-10T00:13:49;15.30;99.90
30280;DHT22;17097;50.916;5.344;2023-05-10T00:16:17;15.30;99.90
30280;DHT22;17097;50.916;5.344;2023-05-10T00:18:42;15.30;99.90
30280;DHT22;17097;50.916;5.344;2023-05-10T00:21:08;15.20;99.90
30280;DHT22;17097;50.916;5.344;2023-05-10T00:23:36;15.20;99.90
30280;DHT22;17097;50.916;5.344;2023-05-10T00:26:01;15.10;99.90
30280;DHT22;17097;50.916;5.344;2023-05-10T00:28:28;15.20;99.90
30280;DHT22;17097;50.916;5.344;2023-05-10T00:30:54;15.10;99.90
30280;DHT22;17097;50.916;5.344;2023-05-10T00:33:19;15.10;99.90
30280;DHT22;17097;50.916;5.344;2023-05-10T00:35:45;15.20;99.90
30280;DHT22;17097;50.916;5.344;2023-05-10T00:38:11;15.10;99.90
30280;DHT22;17097;50.916;5.344;2023-05-10T00:40:37;15.10;99.90
30280;DHT22;17097;50.916;5.344;2023-05-10T00:43:03;15.10;99.90
30280;DHT22;17097;50.916;5.344;2023-05-10T00:45:31;15.00;99.90
30280;DHT22;17097;50.916;5.344;2023-05-10T00:48:01;15.00;99.90
30280;DHT22;17097;50.916;5.344;2023-05-10T00:50:28;15.00;99.90
30280;DHT22;17097;50.916;5.344;2023-05-10T00:52:54;15.10;99.90
30280;DHT22;17097;50.916;5.344;2023-05-10T00:55:22;15.10;99.90
30280;DHT22;17097;50.916;5.344;2023-05-10T00:57:48;15.00;99.90
30280;DHT22;17097;50.916;5.344;2023-05-10T01:00:14;15.00;99.90
30280;DHT22;17097;50.916;5.344;2023-05-10T01:02:44;15.00;99.90
30280;DHT22;17097;50.916;5.344;2023-05-10T01:05:13;15.00;99.90
30280;DHT22;17097;50.916;5.344;2023-05-10T01:07:41;15.10;99.90
30280;DHT22;17097;50.916;5.344;2023-05-10T01:10:07;15.10;99.90
30280;DHT22;17097;50.916;5.344;2023-05-10T01:12:37;15.20;99.90
30280;DHT22;17097;50.916;5.344;2023-05-10T01:15:06;15.20;99.90
30280;DHT22;17097;50.916;5.344;2023-05-10T01:17:32;15.20;99.90
30280;DHT22;17097;50.916;5.344;2023-05-10T01:19:59;15.10;99.90
30280;DHT22;17097;50.916;5.344;2023-05-10T01:33:52;15.00;99.90
30280;DHT22;17097;50.916;5.344;2023-05-10T01:36:39;14.90;99.90
30280;DHT22;17097;50.916;5.344;2023-05-10T01:39:16;14.80;99.90
30280;DHT22;17097;50.916;5.344;2023-05-10T01:41:55;14.80;99.90
30280;DHT22;17097;50.916;5.344;2023-05-10T01:47:11;14.70;99.90
30280;DHT22;17097;50.916;5.344;2023-05-10T01:49:47;14.80;99.90
30280;DHT22;17097;50.916;5.344;2023-05-10T01:52:18;14.80;99.90
30280;DHT22;17097;50.916;5.344;2023-05-10T01:54:55;14.80;99.90
30280;DHT22;17097;50.916;5.344;2023-05-10T01:57:22;14.80;99.90
30280;DHT22;17097;50.916;5.344;2023-05-10T01:59:51;14.70;99.90
30280;DHT22;17097;50.916;5.344;2023-05-10T02:02:20;14.70;99.90
30280;DHT22;17097;50.916;5.344;2023-05-10T02:04:47;14.70;99.90
30280;DHT22;17097;50.916;5.344;2023-05-10T02:07:15;14.70;99.90
30280;DHT22;17097;50.916;5.344;2023-05-10T02:09:44;14.70;99.90
30280;DHT22;17097;50.916;5.344;2023-05-10T02:12:14;14.80;99.90
30280;DHT22;17097;50.916;5.344;2023-05-10T02:14:41;14.70;99.90
30280;DHT22;17097;50.916;5.344;2023-05-10T02:17:11;14.80;99.90
30280;DHT22;17097;50.916;5.344;2023-05-10T02:19:39;14.90;99.90
30280;DHT22;17097;50.916;5.344;2023-05-10T02:22:06;14.90;99.90
30280;DHT22;17097;50.916;5.344;2023-05-10T02:24:34;14.90;99.90
30280;DHT22;17097;50.916;5.344;2023-05-10T02:27:05;14.90;99.90
30280;DHT22;17097;50.916;5.344;2023-05-10T02:29:32;14.90;99.90
30280;DHT22;17097;50.916;5.344;2023-05-10T02:31:59;14.80;99.90
30280;DHT22;17097;50.916;5.344;2023-05-10T02:34:26;14.90;99.90
30280;DHT22;17097;50.916;5.344;2023-05-10T02:36:54;14.80;99.90
30280;DHT22;17097;50.916;5.344;2023-05-10T02:39:21;14.80;99.90
30280;DHT22;17097;50.916;5.344;2023-05-10T02:41:49;14.70;99.90
30280;DHT22;17097;50.916;5.344;2023-05-10T02:44:20;14.80;99.90
30280;DHT22;17097;50.916;5.344;2023-05-10T02:46:48;14.80;99.90
30280;DHT22;17097;50.916;5.344;2023-05-10T02:49:14;14.90;99.90
30280;DHT22;17097;50.916;5.344;2023-05-10T02:51:45;14.80;99.90
30280;DHT22;17097;50.916;5.344;2023-05-10T02:54:27;14.90;99.90
30280;DHT22;17097;50.916;5.344;2023-05-10T02:56:58;14.90;99.90
30280;DHT22;17097;50.916;5.344;2023-05-10T02:59:28;14.80;99.90
30280;DHT22;17097;50.916;5.344;2023-05-10T03:01:53;14.90;99.90
30280;DHT22;17097;50.916;5.344;2023-05-10T03:04:19;14.80;99.90
30280;DHT22;17097;50.916;5.344;2023-05-10T03:06:47;14.80;99.90
30280;DHT22;17097;50.916;5.344;2023-05-10T03:09:13;14.80;99.90
30280;DHT22;17097;50.916;5.344;2023-05-10T03:20:20;14.80;99.90
30280;DHT22;17097;50.916;5.344;2023-05-10T03:22:55;14.80;99.90
30280;DHT22;17097;50.916;5.344;2023-05-10T03:25:24;14.90;99.90
30280;DHT22;17097;50.916;5.344;2023-05-10T03:27:51;14.80;99.90
30280;DHT22;17097;50.916;5.344;2023-05-10T03:30:20;14.70;99.90
30280;DHT22;17097;50.916;5.344;2023-05-10T03:32:46;14.70;99.90
30280;DHT22;17097;50.916;5.344;2023-05-10T03:35:15;14.80;99.90
30280;DHT22;17097;50.916;5.344;2023-05-10T03:37:41;14.80;99.90
30280;DHT22;17097;50.916;5.344;2023-05-10T03:40:07;14.80;99.90
30280;DHT22;17097;50.916;5.344;2023-05-10T03:42:33;14.90;99.90
30280;DHT22;17097;50.916;5.344;2023-05-10T03:44:58;14.90;99.90
30280;DHT22;17097;50.916;5.344;2023-05-10T03:47:24;14.80;99.90
30280;DHT22;17097;50.916;5.344;2023-05-10T03:49:52;14.90;99.90
30280;DHT22;17097;50.916;5.344;2023-05-10T03:52:17;14.70;99.90
30280;DHT22;17097;50.916;5.344;2023-05-10T03:54:43;14.80;99.90
30280;DHT22;17097;50.916;5.344;2023-05-10T03:57:12;14.80;99.90
30280;DHT22;17097;50.916;5.344;2023-05-10T03:59:38;14.70;99.90
30280;DHT22;17097;50.916;5.344;2023-05-10T04:02:05;14.70;99.90
30280;DHT22;17097;50.916;5.344;2023-05-10T04:04:31;14.70;99.90
30280;DHT22;17097;50.916;5.344;2023-05-10T04:06:57;14.70;99.90
30280;DHT22;17097;50.916;5.344;2023-05-10T04:09:24;14.60;99.90
30280;DHT22;17097;50.916;5.344;2023-05-10T04:11:50;14.60;99.90
30280;DHT22;17097;50.916;5.344;2023-05-10T04:14:16;14.60;99.90
30280;DHT22;17097;50.916;5.344;2023-05-10T04:16:42;14.60;99.90
30280;DHT22;17097;50.916;5.344;2023-05-10T04:19:08;14.40;99.90
30280;DHT22;17097;50.916;5.344;2023-05-10T04:21:33;14.30;99.90
30280;DHT22;17097;50.916;5.344;2023-05-10T04:23:59;14.40;99.90
30280;DHT22;17097;50.916;5.344;2023-05-10T04:26:24;14.50;99.90
30280;DHT22;17097;50.916;5.344;2023-05-10T04:28:53;14.60;99.90
30280;DHT22;17097;50.916;5.344;2023-05-10T04:31:19;14.50;99.90
30280;DHT22;17097;50.916;5.344;2023-05-10T04:33:45;14.60;99.90
30280;DHT22;17097;50.916;5.344;2023-05-10T04:36:10;14.60;99.90
30280;DHT22;17097;50.916;5.344;2023-05-10T04:38:36;14.60;99.90
30280;DHT22;17097;50.916;5.344;2023-05-10T04:43:32;14.60;99.90
30280;DHT22;17097;50.916;5.344;2023-05-10T04:46:00;14.70;99.90
30280;DHT22;17097;50.916;5.344;2023-05-10T04:48:26;14.60;99.90
30280;DHT22;17097;50.916;5.344;2023-05-10T04:50:51;14.50;99.90
30280;DHT22;17097;50.916;5.344;2023-05-10T04:53:17;14.50;99.90
30280;DHT22;17097;50.916;5.344;2023-05-10T04:55:42;14.50;99.90
30280;DHT22;17097;50.916;5.344;2023-05-10T04:58:08;14.50;99.90
30280;DHT22;17097;50.916;5.344;2023-05-10T05:00:34;14.70;99.90
30280;DHT22;17097;50.916;5.344;2023-05-10T05:03:00;14.50;99.90
30280;DHT22;17097;50.916;5.344;2023-05-10T05:05:26;14.50;99.90
30280;DHT22;17097;50.916;5.344;2023-05-10T05:07:52;14.40;99.90
30280;DHT22;17097;50.916;5.344;2023-05-10T05:10:17;14.50;99.90
30280;DHT22;17097;50.916;5.344;2023-05-10T05:12:46;14.50;99.90
30280;DHT22;17097;50.916;5.344;2023-05-10T05:15:14;14.30;99.90
30280;DHT22;17097;50.916;5.344;2023-05-10T05:17:42;14.20;99.90
30280;DHT22;17097;50.916;5.344;2023-05-10T05:20:08;14.40;99.90
30280;DHT22;17097;50.916;5.344;2023-05-10T05:22:36;14.30;99.90
30280;DHT22;17097;50.916;5.344;2023-05-10T05:25:02;14.30;99.90
30280;DHT22;17097;50.916;5.344;2023-05-10T05:27:30;14.40;99.90
30280;DHT22;17097;50.916;5.344;2023-05-10T05:29:57;14.40;99.90
30280;DHT22;17097;50.916;5.344;2023-05-10T05:32:23;14.30;99.90
30280;DHT22;17097;50.916;5.344;2023-05-10T05:34:49;14.30;99.90
30280;DHT22;17097;50.916;5.344;2023-05-10T05:37:20;14.30;99.90
30280;DHT22;17097;50.916;5.344;2023-05-10T05:39:47;14.40;99.90
30280;DHT22;17097;50.916;5.344;2023-05-10T05:42:15;14.30;99.90
30280;DHT22;17097;50.916;5.344;2023-05-10T05:44:43;14.40;99.90
30280;DHT22;17097;50.916;5.344;2023-05-10T05:47:09;14.50;99.90
30280;DHT22;17097;50.916;5.344;2023-05-10T05:49:35;14.60;99.90
30280;DHT22;17097;50.916;5.344;2023-05-10T05:52:02;14.50;99.90
30280;DHT22;17097;50.916;5.344;2023-05-10T05:54:28;14.50;99.90
30280;DHT22;17097;50.916;5.344;2023-05-10T05:56:57;14.50;99.90
30280;DHT22;17097;50.916;5.344;2023-05-10T05:59:23;14.50;99.90
30280;DHT22;17097;50.916;5.344;2023-05-10T06:01:52;14.50;99.90
30280;DHT22;17097;50.916;5.344;2023-05-10T06:04:20;14.40;99.90
30280;DHT22;17097;50.916;5.344;2023-05-10T06:06:46;14.40;99.90
30280;DHT22;17097;50.916;5.344;2023-05-10T06:09:12;14.40;99.90
30280;DHT22;17097;50.916;5.344;2023-05-10T06:11:38;14.50;99.90
30280;DHT22;17097;50.916;5.344;2023-05-10T06:14:04;14.60;99.90
30280;DHT22;17097;50.916;5.344;2023-05-10T06:16:34;14.60;99.90
30280;DHT22;17097;50.916;5.344;2023-05-10T06:19:00;14.70;99.90
30280;DHT22;17097;50.916;5.344;2023-05-10T06:21:26;14.70;99.90
30280;DHT22;17097;50.916;5.344;2023-05-10T06:23:52;14.70;99.90
30280;DHT22;17097;50.916;5.344;2023-05-10T06:26:19;14.70;99.90
30280;DHT22;17097;50.916;5.344;2023-05-10T06:28:46;14.80;99.90
30280;DHT22;17097;50.916;5.344;2023-05-10T06:31:11;14.80;99.90
30280;DHT22;17097;50.916;5.344;2023-05-10T06:33:42;14.80;99.90
30280;DHT22;17097;50.916;5.344;2023-05-10T06:36:08;14.80;99.90
30280;DHT22;17097;50.916;5.344;2023-05-10T06:38:33;14.80;99.90
30280;DHT22;17097;50.916;5.344;2023-05-10T06:40:59;14.80;99.90
30280;DHT22;17097;50.916;5.344;2023-05-10T06:43:25;14.80;99.90
30280;DHT22;17097;50.916;5.344;2023-05-10T06:45:54;14.80;99.90
30280;DHT22;17097;50.916;5.344;2023-05-10T06:48:20;14.90;99.90
30280;DHT22;17097;50.916;5.344;2023-05-10T06:50:45;15.00;99.90
30280;DHT22;17097;50.916;5.344;2023-05-10T06:53:11;15.00;99.90
30280;DHT22;17097;50.916;5.344;2023-05-10T06:55:38;15.10;99.90
30280;DHT22;17097;50.916;5.344;2023-05-10T06:58:03;15.10;99.90
30280;DHT22;17097;50.916;5.344;2023-05-10T07:00:29;15.00;99.90
30280;DHT22;17097;50.916;5.344;2023-05-10T07:02:56;15.10;99.90
30280;DHT22;17097;50.916;5.344;2023-05-10T07:05:22;15.10;99.90
30280;DHT22;17097;50.916;5.344;2023-05-10T07:07:47;15.10;99.90
30280;DHT22;17097;50.916;5.344;2023-05-10T07:10:13;15.10;99.90
30280;DHT22;17097;50.916;5.344;2023-05-10T07:12:40;15.10;99.90
30280;DHT22;17097;50.916;5.344;2023-05-10T07:15:06;15.10;99.90
30280;DHT22;17097;50.916;5.344;2023-05-10T07:17:33;15.10;99.90
30280;DHT22;17097;50.916;5.344;2023-05-10T07:19:59;15.10;99.90
30280;DHT22;17097;50.916;5.344;2023-05-10T07:22:25;15.20;99.90
30280;DHT22;17097;50.916;5.344;2023-05-10T07:24:51;15.20;99.90
30280;DHT22;17097;50.916;5.344;2023-05-10T07:27:17;15.30;99.90
30280;DHT22;17097;50.916;5.344;2023-05-10T07:29:43;15.30;99.90
30280;DHT22;17097;50.916;5.344;2023-05-10T07:32:09;15.20;99.90
30280;DHT22;17097;50.916;5.344;2023-05-10T07:34:35;15.30;99.90
30280;DHT22;17097;50.916;5.344;2023-05-10T07:37:01;15.20;99.90
30280;DHT22;17097;50.916;5.344;2023-05-10T07:39:27;15.30;99.90
30280;DHT22;17097;50.916;5.344;2023-05-10T07:41:55;15.30;99.90
30280;DHT22;17097;50.916;5.344;2023-05-10T07:44:24;15.30;99.90
30280;DHT22;17097;50.916;5.344;2023-05-10T07:46:50;15.30;99.90
30280;DHT22;17097;50.916;5.344;2023-05-10T07:49:16;15.30;99.90
30280;DHT22;17097;50.916;5.344;2023-05-10T07:51:41;15.30;99.90
30280;DHT22;17097;50.916;5.344;2023-05-10T07:54:08;15.30;99.90
30280;DHT22;17097;50.916;5.344;2023-05-10T07:56:34;15.20;99.90
30280;DHT22;17097;50.916;5.344;2023-05-10T07:59:00;15.30;99.90
30280;DHT22;17097;50.916;5.344;2023-05-10T08:01:26;15.30;99.90
30280;DHT22;17097;50.916;5.344;2023-05-10T08:03:52;15.40;99.90
30280;DHT22;17097;50.916;5.344;2023-05-10T08:06:19;15.20;99.90
30280;DHT22;17097;50.916;5.344;2023-05-10T08:08:47;15.20;99.90
30280;DHT22;17097;50.916;5.344;2023-05-10T08:11:18;15.30;99.90
30280;DHT22;17097;50.916;5.344;2023-05-10T08:13:48;15.10;99.90
30280;DHT22;17097;50.916;5.344;2023-05-10T08:16:14;15.20;99.90
30280;DHT22;17097;50.916;5.344;2023-05-10T08:18:40;15.20;99.90
30280;DHT22;17097;50.916;5.344;2023-05-10T08:21:06;15.00;99.90
30280;DHT22;17097;50.916;5.344;2023-05-10T08:23:34;15.10;99.90
30280;DHT22;17097;50.916;5.344;2023-05-10T08:26:00;15.10;99.90
30280;DHT22;17097;50.916;5.344;2023-05-10T08:28:26;15.10;99.90
30280;DHT22;17097;50.916;5.344;2023-05-10T08:30:52;15.00;99.90
30280;DHT22;17097;50.916;5.344;2023-05-10T08:33:18;15.00;99.90
30280;DHT22;17097;50.916;5.344;2023-05-10T08:35:44;15.00;99.90
30280;DHT22;17097;50.916;5.344;2023-05-10T08:38:10;15.00;99.90
30280;DHT22;17097;50.916;5.344;2023-05-10T08:40:42;15.00;99.90
30280;DHT22;17097;50.916;5.344;2023-05-10T08:43:09;14.90;99.90
30280;DHT22;17097;50.916;5.344;2023-05-10T08:45:43;15.00;99.90
30280;DHT22;17097;50.916;5.344;2023-05-10T08:48:14;15.00;99.90
30280;DHT22;17097;50.916;5.344;2023-05-10T08:50:44;15.00;99.90
30280;DHT22;17097;50.916;5.344;2023-05-10T08:53:11;15.00;99.90
30280;DHT22;17097;50.916;5.344;2023-05-10T08:55:38;15.00;99.90
30280;DHT22;17097;50.916;5.344;2023-05-10T08:58:05;15.00;99.90
30280;DHT22;17097;50.916;5.344;2023-05-10T09:00:32;15.00;99.90
30280;DHT22;17097;50.916;5.344;2023-05-10T09:02:59;15.00;99.90
30280;DHT22;17097;50.916;5.344;2023-05-10T09:05:25;15.00;99.90
30280;DHT22;17097;50.916;5.344;2023-05-10T09:07:51;15.00;99.90
30280;DHT22;17097;50.916;5.344;2023-05-10T09:10:19;14.90;99.90
30280;DHT22;17097;50.916;5.344;2023-05-10T09:12:48;14.80;99.90
30280;DHT22;17097;50.916;5.344;2023-05-10T09:15:22;14.80;99.90
30280;DHT22;17097;50.916;5.344;2023-05-10T09:17:49;15.00;99.90
30280;DHT22;17097;50.916;5.344;2023-05-10T09:20:15;15.00;99.90
30280;DHT22;17097;50.916;5.344;2023-05-10T09:22:43;15.00;99.90
30280;DHT22;17097;50.916;5.344;2023-05-10T09:25:10;15.10;99.90
30280;DHT22;17097;50.916;5.344;2023-05-10T09:27:38;15.10;99.90
30280;DHT22;17097;50.916;5.344;2023-05-10T09:30:05;15.10;99.90
30280;DHT22;17097;50.916;5.344;2023-05-10T09:32:42;15.20;99.90
30280;DHT22;17097;50.916;5.344;2023-05-10T09:35:09;15.30;99.90
30280;DHT22;17097;50.916;5.344;2023-05-10T09:37:35;15.30;99.90
30280;DHT22;17097;50.916;5.344;2023-05-10T09:40:04;15.40;99.90
30280;DHT22;17097;50.916;5.344;2023-05-10T09:42:30;15.50;99.90
30280;DHT22;17097;50.916;5.344;2023-05-10T09:45:07;15.60;99.90
30280;DHT22;17097;50.916;5.344;2023-05-10T09:47:35;15.60;99.90
30280;DHT22;17097;50.916;5.344;2023-05-10T09:50:05;15.80;99.90
30280;DHT22;17097;50.916;5.344;2023-05-10T09:52:47;15.90;99.90
30280;DHT22;17097;50.916;5.344;2023-05-10T09:55:17;15.90;99.90
30280;DHT22;17097;50.916;5.344;2023-05-10T09:57:43;15.90;99.90
30280;DHT22;17097;50.916;5.344;2023-05-10T10:00:10;16.00;99.90
30280;DHT22;17097;50.916;5.344;2023-05-10T10:02:41;16.10;99.90
30280;DHT22;17097;50.916;5.344;2023-05-10T10:05:07;16.10;99.90
30280;DHT22;17097;50.916;5.344;2023-05-10T10:07:34;16.20;99.90
30280;DHT22;17097;50.916;5.344;2023-05-10T10:10:00;16.30;99.90
30280;DHT22;17097;50.916;5.344;2023-05-10T10:12:32;16.20;99.90
30280;DHT22;17097;50.916;5.344;2023-05-10T10:14:59;16.30;99.90
30280;DHT22;17097;50.916;5.344;2023-05-10T10:17:27;16.20;99.90
30280;DHT22;17097;50.916;5.344;2023-05-10T10:19:54;16.20;99.90
30280;DHT22;17097;50.916;5.344;2023-05-10T10:22:20;16.20;99.90
30280;DHT22;17097;50.916;5.344;2023-05-10T10:24:46;16.10;99.90
30280;DHT22;17097;50.916;5.344;2023-05-10T10:27:24;16.40;99.90
30280;DHT22;17097;50.916;5.344;2023-05-10T10:30:04;16.20;99.90
30280;DHT22;17097;50.916;5.344;2023-05-10T10:35:28;16.10;99.90
30280;DHT22;17097;50.916;5.344;2023-05-10T10:37:54;15.90;99.90
30280;DHT22;17097;50.916;5.344;2023-05-10T10:40:24;16.00;99.90
30280;DHT22;17097;50.916;5.344;2023-05-10T10:42:52;16.20;99.90
30280;DHT22;17097;50.916;5.344;2023-05-10T10:45:19;16.10;99.90
30280;DHT22;17097;50.916;5.344;2023-05-10T10:47:49;15.90;99.90
30280;DHT22;17097;50.916;5.344;2023-05-10T10:50:17;16.00;99.90
30280;DHT22;17097;50.916;5.344;2023-05-10T10:52:46;16.00;99.90
30280;DHT22;17097;50.916;5.344;2023-05-10T10:55:19;16.10;99.90
30280;DHT22;17097;50.916;5.344;2023-05-10T10:57:53;16.10;99.90
30280;DHT22;17097;50.916;5.344;2023-05-10T11:02:53;16.20;99.90
30280;DHT22;17097;50.916;5.344;2023-05-10T11:07:56;16.30;99.90
30280;DHT22;17097;50.916;5.344;2023-05-10T11:10:23;16.40;99.90
30280;DHT22;17097;50.916;5.344;2023-05-10T11:13:03;16.40;99.90
30280;DHT22;17097;50.916;5.344;2023-05-10T11:15:37;16.30;99.90
30280;DHT22;17097;50.916;5.344;2023-05-10T11:18:24;16.20;99.90
30280;DHT22;17097;50.916;5.344;2023-05-10T11:20:58;16.30;99.90
30280;DHT22;17097;50.916;5.344;2023-05-10T11:23:30;16.10;99.90
30280;DHT22;17097;50.916;5.344;2023-05-10T11:25:56;16.20;99.90
30280;DHT22;17097;50.916;5.344;2023-05-10T11:28:26;16.10;99.90
30280;DHT22;17097;50.916;5.344;2023-05-10T11:30:52;16.40;99.90
30280;DHT22;17097;50.916;5.344;2023-05-10T11:33:20;16.40;99.90
30280;DHT22;17097;50.916;5.344;2023-05-10T11:35:46;16.30;99.90
30280;DHT22;17097;50.916;5.344;2023-05-10T11:38:13;16.10;99.90
30280;DHT22;17097;50.916;5.344;2023-05-10T11:40:41;16.00;99.90
30280;DHT22;17097;50.916;5.344;2023-05-10T11:43:09;16.20;99.90
30280;DHT22;17097;50.916;5.344;2023-05-10T11:45:40;16.30;99.90
30280;DHT22;17097;50.916;5.344;2023-05-10T11:48:07;16.40;99.90
30280;DHT22;17097;50.916;5.344;2023-05-10T11:50:33;16.50;99.90
30280;DHT22;17097;50.916;5.344;2023-05-10T11:53:02;16.60;99.90
30280;DHT22;17097;50.916;5.344;2023-05-10T11:55:28;16.70;99.90
30280;DHT22;17097;50.916;5.344;2023-05-10T11:58:00;16.60;99.90
30280;DHT22;17097;50.916;5.344;2023-05-10T12:00:29;16.40;99.90
30280;DHT22;17097;50.916;5.344;2023-05-10T12:02:56;16.50;99.90
30280;DHT22;17097;50.916;5.344;2023-05-10T12:05:22;16.40;99.90
30280;DHT22;17097;50.916;5.344;2023-05-10T12:07:48;16.50;99.90
30280;DHT22;17097;50.916;5.344;2023-05-10T12:10:14;16.60;99.90
30280;DHT22;17097;50.916;5.344;2023-05-10T12:12:45;16.60;99.90
30280;DHT22;17097;50.916;5.344;2023-05-10T12:15:22;16.60;99.90
30280;DHT22;17097;50.916;5.344;2023-05-10T12:17:48;16.60;99.90
30280;DHT22;17097;50.916;5.344;2023-05-10T12:22:43;16.80;99.90
30280;DHT22;17097;50.916;5.344;2023-05-10T12:25:09;16.60;99.90
30280;DHT22;17097;50.916;5.344;2023-05-10T12:27:35;16.50;99.90
30280;DHT22;17097;50.916;5.344;2023-05-10T12:30:02;16.60;99.90
30280;DHT22;17097;50.916;5.344;2023-05-10T12:32:41;16.80;99.90
30280;DHT22;17097;50.916;5.344;2023-05-10T12:35:07;17.00;99.90
30280;DHT22;17097;50.916;5.344;2023-05-10T12:37:34;17.20;99.90
30280;DHT22;17097;50.916;5.344;2023-05-10T12:40:06;17.20;99.90
30280;DHT22;17097;50.916;5.344;2023-05-10T12:42:32;17.30;99.90
30280;DHT22;17097;50.916;5.344;2023-05-10T12:44:57;17.50;99.90
30280;DHT22;17097;50.916;5.344;2023-05-10T12:47:25;17.40;99.90
30280;DHT22;17097;50.916;5.344;2023-05-10T12:49:51;17.40;99.90
30280;DHT22;17097;50.916;5.344;2023-05-10T12:52:17;17.40;99.90
30280;DHT22;17097;50.916;5.344;2023-05-10T12:54:43;17.40;99.90
30280;DHT22;17097;50.916;5.344;2023-05-10T12:57:09;17.50;99.90
30280;DHT22;17097;50.916;5.344;2023-05-10T12:59:35;17.30;99.90
30280;DHT22;17097;50.916;5.344;2023-05-10T13:02:01;17.20;99.90
30280;DHT22;17097;50.916;5.344;2023-05-10T13:04:27;17.50;99.90
30280;DHT22;17097;50.916;5.344;2023-05-10T13:06:53;17.80;99.90
30280;DHT22;17097;50.916;5.344;2023-05-10T13:09:24;17.80;99.90
30280;DHT22;17097;50.916;5.344;2023-05-10T13:11:52;17.90;99.90
30280;DHT22;17097;50.916;5.344;2023-05-10T13:14:19;18.10;99.90
30280;DHT22;17097;50.916;5.344;2023-05-10T13:16:46;18.40;99.90
30280;DHT22;17097;50.916;5.344;2023-05-10T13:19:13;18.60;99.90
30280;DHT22;17097;50.916;5.344;2023-05-10T13:21:42;18.80;99.90
30280;DHT22;17097;50.916;5.344;2023-05-10T13:24:10;18.90;99.90
30280;DHT22;17097;50.916;5.344;2023-05-10T13:26:36;19.00;99.90
30280;DHT22;17097;50.916;5.344;2023-05-10T13:29:03;19.00;99.90
30280;DHT22;17097;50.916;5.344;2023-05-10T13:31:31;19.00;99.90
30280;DHT22;17097;50.916;5.344;2023-05-10T13:33:57;19.00;99.90
30280;DHT22;17097;50.916;5.344;2023-05-10T13:36:22;19.10;99.90
30280;DHT22;17097;50.916;5.344;2023-05-10T13:38:49;19.00;99.90
30280;DHT22;17097;50.916;5.344;2023-05-10T13:41:15;19.10;99.90
30280;DHT22;17097;50.916;5.344;2023-05-10T13:43:43;19.00;99.90
30280;DHT22;17097;50.916;5.344;2023-05-10T13:46:09;18.90;99.90
30280;DHT22;17097;50.916;5.344;2023-05-10T13:48:35;18.80;99.90
30280;DHT22;17097;50.916;5.344;2023-05-10T13:51:02;18.80;99.90
30280;DHT22;17097;50.916;5.344;2023-05-10T13:53:31;18.80;99.90
30280;DHT22;17097;50.916;5.344;2023-05-10T13:55:57;18.60;99.90
30280;DHT22;17097;50.916;5.344;2023-05-10T13:58:23;18.80;99.90
30280;DHT22;17097;50.916;5.344;2023-05-10T14:00:48;18.90;99.90
30280;DHT22;17097;50.916;5.344;2023-05-10T14:03:15;18.80;99.90
30280;DHT22;17097;50.916;5.344;2023-05-10T14:05:43;18.90;99.90
30280;DHT22;17097;50.916;5.344;2023-05-10T14:08:12;19.00;99.90
30280;DHT22;17097;50.916;5.344;2023-05-10T14:10:38;18.90;99.90
30280;DHT22;17097;50.916;5.344;2023-05-10T14:13:07;18.80;99.90
30280;DHT22;17097;50.916;5.344;2023-05-10T14:15:33;18.80;99.90
30280;DHT22;17097;50.916;5.344;2023-05-10T14:17:59;18.90;99.90
30280;DHT22;17097;50.916;5.344;2023-05-10T14:20:25;18.80;99.90
30280;DHT22;17097;50.916;5.344;2023-05-10T14:22:51;18.40;99.90
30280;DHT22;17097;50.916;5.344;2023-05-10T14:25:16;18.30;99.90
30280;DHT22;17097;50.916;5.344;2023-05-10T14:27:42;18.30;99.90
30280;DHT22;17097;50.916;5.344;2023-05-10T14:30:10;18.30;99.90
30280;DHT22;17097;50.916;5.344;2023-05-10T14:32:36;18.50;99.90
30280;DHT22;17097;50.916;5.344;2023-05-10T14:35:02;18.40;99.90
30280;DHT22;17097;50.916;5.344;2023-05-10T14:37:28;18.40;99.90
30280;DHT22;17097;50.916;5.344;2023-05-10T14:39:54;18.40;99.90
30280;DHT22;17097;50.916;5.344;2023-05-10T14:42:20;18.50;99.90
30280;DHT22;17097;50.916;5.344;2023-05-10T14:44:48;18.40;99.90
30280;DHT22;17097;50.916;5.344;2023-05-10T14:47:17;18.40;99.90
30280;DHT22;17097;50.916;5.344;2023-05-10T14:49:42;18.50;99.90
30280;DHT22;17097;50.916;5.344;2023-05-10T14:52:08;18.70;99.90
30280;DHT22;17097;50.916;5.344;2023-05-10T14:54:34;19.00;99.90
30280;DHT22;17097;50.916;5.344;2023-05-10T14:57:00;19.30;99.90
30280;DHT22;17097;50.916;5.344;2023-05-10T14:59:32;19.40;99.90
30280;DHT22;17097;50.916;5.344;2023-05-10T15:01:58;19.40;99.90
30280;DHT22;17097;50.916;5.344;2023-05-10T15:04:26;19.30;99.90
30280;DHT22;17097;50.916;5.344;2023-05-10T15:06:52;19.20;99.90
30280;DHT22;17097;50.916;5.344;2023-05-10T15:09:24;19.20;99.90
30280;DHT22;17097;50.916;5.344;2023-05-10T15:11:50;19.20;99.90
30280;DHT22;17097;50.916;5.344;2023-05-10T15:14:16;19.30;99.90
30280;DHT22;17097;50.916;5.344;2023-05-10T15:16:42;19.30;99.90
30280;DHT22;17097;50.916;5.344;2023-05-10T15:19:08;19.10;99.90
30280;DHT22;17097;50.916;5.344;2023-05-10T15:21:34;19.20;99.90
30280;DHT22;17097;50.916;5.344;2023-05-10T15:24:07;19.30;99.90
30280;DHT22;17097;50.916;5.344;2023-05-10T15:26:33;19.30;99.90
30280;DHT22;17097;50.916;5.344;2023-05-10T15:28:59;19.30;99.90
30280;DHT22;17097;50.916;5.344;2023-05-10T15:31:25;19.20;99.90
30280;DHT22;17097;50.916;5.344;2023-05-10T15:33:57;19.40;99.90
30280;DHT22;17097;50.916;5.344;2023-05-10T15:36:26;19.50;99.90
30280;DHT22;17097;50.916;5.344;2023-05-10T15:38:55;19.50;99.90
30280;DHT22;17097;50.916;5.344;2023-05-10T15:41:21;19.50;99.90
30280;DHT22;17097;50.916;5.344;2023-05-10T15:43:47;19.80;99.90
30280;DHT22;17097;50.916;5.344;2023-05-10T15:46:15;19.90;99.90
30280;DHT22;17097;50.916;5.344;2023-05-10T15:48:40;19.90;99.90
30280;DHT22;17097;50.916;5.344;2023-05-10T15:51:09;20.10;99.90
30280;DHT22;17097;50.916;5.344;2023-05-10T15:53:36;20.00;99.90
30280;DHT22;17097;50.916;5.344;2023-05-10T15:56:04;20.00;99.90
30280;DHT22;17097;50.916;5.344;2023-05-10T15:58:30;19.90;99.90
30280;DHT22;17097;50.916;5.344;2023-05-10T16:00:56;19.90;99.90
30280;DHT22;17097;50.916;5.344;2023-05-10T16:03:24;19.90;99.90
30280;DHT22;17097;50.916;5.344;2023-05-10T16:05:51;20.00;99.90
30280;DHT22;17097;50.916;5.344;2023-05-10T16:08:19;20.00;99.90